Latest Weather Observations for Fingal

IDT60801

Issued at 9:05 pm EST Monday 1 September 2014 (issued every 30 minutes, with the page automatically refreshed every 10 minutes)

About weather observations | Map of weather stations | Latest weather observations for TAS | Other Formats
Station Details ID: 092012 Name: FINGAL (LEGGE STREET) Lat: -41.64 Lon: 147.97 Height: 237.0 m
Data from the previous 72 hours. | See also: Recent months at Fingal
Date/Time
EST
Temp
°C
App
Temp
°C
Dew
Point
Rel
Hum
%
Delta-T
°C
Wind Press
QNH
hPa
Press
MSL
hPa
Rain
since 9 am
mm
Dir
 
Spd
km/h
Gust
km/h
Spd
kts
Gust
kts
01/09:00pm 7.7 4.6 5.5 86 1.0 SW 11 19 6 10 - - 0.6
01/08:30pm 7.8 4.4 5.8 87 0.9 WSW 13 24 7 13 - - 0.6
01/08:00pm 8.0 5.0 6.0 87 0.9 WSW 11 20 6 11 - - 0.4
01/07:30pm 8.6 5.6 6.1 84 1.2 W 11 17 6 9 - - 0.2
01/07:00pm 9.7 7.1 5.9 77 1.8 S 9 19 5 10 - - 0.2
01/06:30pm 10.8 8.2 6.2 73 2.2 S 9 15 5 8 - - 0.0
01/06:00pm 10.4 7.0 5.8 73 2.1 S 13 22 7 12 - - 0.0
01/05:30pm 11.5 8.9 6.0 69 2.6 SSW 9 17 5 9 - - 0.0
01/05:00pm 11.5 9.1 7.2 75 2.1 SW 9 15 5 8 - - 0.0
01/04:30pm 13.0 10.5 6.4 64 3.2 W 9 22 5 12 - - 0.0
01/04:00pm 13.1 9.5 6.9 66 3.0 N 15 20 8 11 - - 0.0
01/03:30pm 13.1 9.9 6.9 66 3.0 N 13 24 7 13 - - 0.0
01/03:00pm 13.4 10.2 7.0 65 3.1 NNE 13 32 7 17 - - 0.0
01/02:30pm 13.0 10.3 7.5 69 2.7 E 11 20 6 11 - - 0.0
01/02:00pm 12.6 10.5 8.1 74 2.2 SSE 9 15 5 8 - - 0.0
01/01:30pm 13.3 10.9 7.1 66 3.0 NNW 9 24 5 13 - - 0.0
01/01:00pm 13.7 9.2 7.0 64 3.3 N 20 30 11 16 - - 0.0
01/12:30pm 13.9 10.9 7.7 66 3.1 N 13 20 7 11 - - 0.0
01/12:00pm 14.7 11.6 7.3 61 3.7 N 13 30 7 16 - - 0.0
01/11:30am 14.5 11.6 6.3 58 4.0 NNW 11 22 6 12 - - 0.0
01/11:00am 15.1 12.9 6.1 55 4.4 W 7 22 4 12 - - 0.0
01/10:30am 15.4 11.3 6.1 54 4.5 NW 17 39 9 21 - - 0.0
01/10:00am 14.9 11.9 6.2 56 4.2 ESE 11 28 6 15 - - 0.0
01/09:30am 14.4 11.0 5.7 56 4.2 E 13 20 7 11 - - 0.0
01/09:00am 14.2 10.8 5.8 57 4.0 E 13 20 7 11 - - 0.0
01/08:30am 14.3 10.9 5.9 57 4.1 ESE 13 28 7 15 - - 0.0
01/08:00am 13.7 10.7 6.1 60 3.7 ENE 11 26 6 14 - - 0.0
01/07:30am 12.8 8.4 6.4 65 3.1 E 19 28 10 15 - - 0.0
01/07:00am 12.3 9.0 6.4 67 2.8 NE 13 19 7 10 - - 0.0
01/06:30am 11.7 9.6 6.0 68 2.7 NE 6 9 3 5 - - 0.0
01/06:00am 11.8 9.5 5.9 67 2.8 NE 7 15 4 8 - - 0.0
01/05:30am 10.9 9.4 5.2 68 2.6 ESE 2 7 1 4 - - 0.0
01/05:00am 11.7 8.7 5.8 67 2.8 W 11 17 6 9 - - 0.0
01/04:30am 10.9 8.7 5.4 69 2.6 ESE 6 11 3 6 - - 0.0
01/04:00am 9.5 7.2 5.5 76 1.8 SSE 7 11 4 6 - - 0.0
01/03:30am 9.3 6.6 5.5 77 1.7 SSE 9 13 5 7 - - 0.0
01/03:00am 9.2 7.8 5.6 78 1.7 SSW 2 11 1 6 - - 0.0
01/02:30am 9.1 7.3 5.3 77 1.7 ESE 4 6 2 3 - - 0.0
01/02:00am 9.5 7.3 5.1 74 2.0 SSE 6 7 3 4 - - 0.0
01/01:30am 10.2 7.9 5.6 73 2.1 SE 7 9 4 5 - - 0.0
01/01:00am 11.1 8.4 5.8 70 2.5 E 9 15 5 8 - - 0.0
01/12:30am 10.7 8.4 5.7 71 2.3 SE 7 11 4 6 - - 0.0
01/12:00am 11.1 8.4 5.8 70 2.5 ESE 9 11 5 6 - - 0.0
 
Date/Time
EST
Temp
°C
App
Temp
°C
Dew
Point
Rel
Hum
%
Delta-T
°C
Wind Press
QNH
hPa
Press
MSL
hPa
Rain
since 9 am
mm
Dir
 
Spd
km/h
Gust
km/h
Spd
kts
Gust
kts
31/11:30pm 11.7 9.0 5.6 66 2.9 NE 9 15 5 8 - - 0.0
31/11:00pm 12.0 9.7 5.6 65 3.0 ENE 7 13 4 7 - - 0.0
31/10:30pm 12.0 9.4 6.3 68 2.7 ENE 9 11 5 6 - - 0.0
31/10:00pm 10.9 9.0 6.5 74 2.1 NNE 6 7 3 4 - - 0.0
31/09:30pm 11.9 9.7 6.4 69 2.6 E 7 15 4 8 - - 0.0
31/09:00pm 11.3 8.9 6.8 74 2.2 ENE 9 13 5 7 - - 0.0
31/08:30pm 11.7 9.7 7.2 74 2.2 E 7 11 4 6 - - 0.0
31/08:00pm 11.2 8.5 7.3 77 1.9 SE 11 13 6 7 - - 0.0
31/07:30pm 11.3 9.9 7.2 76 2.0 E 4 9 2 5 - - 0.0
31/07:00pm 11.4 9.6 7.3 76 2.0 ESE 6 9 3 5 - - 0.0
31/06:30pm 12.1 10.3 7.2 72 2.4 ENE 6 9 3 5 - - 0.0
31/06:00pm 12.9 11.0 7.6 70 2.6 ENE 7 13 4 7 - - 0.0
31/05:30pm 13.6 11.0 7.6 67 3.0 ENE 11 19 6 10 - - 0.0
31/05:00pm 13.9 11.7 7.7 66 3.1 NE 9 19 5 10 - - 0.0
31/04:30pm 14.3 11.8 8.0 66 3.2 ENE 11 19 6 10 - - 0.0
31/04:00pm 15.8 13.2 7.6 58 4.1 N 11 17 6 9 - - 0.0
31/03:30pm 16.5 13.0 7.2 54 4.7 N 15 20 8 11 - - 0.0
31/03:00pm 17.5 14.1 7.5 52 5.1 N 15 22 8 12 - - 0.0
31/02:30pm 18.0 16.2 7.1 49 5.5 SE 6 9 3 5 - - 0.0
31/02:00pm 17.6 15.6 7.1 50 5.3 NW 7 11 4 6 - - 0.0
31/01:30pm 17.0 15.2 7.1 52 5.0 W 6 11 3 6 - - 0.0
31/01:00pm 16.8 14.4 6.9 52 5.0 WNW 9 15 5 8 - - 0.0
31/12:30pm 15.7 13.8 6.7 55 4.5 S 6 9 3 5 - - 0.0
31/12:00pm 14.8 13.1 7.4 61 3.7 S 6 9 3 5 - - 0.0
31/11:30am 14.1 12.3 8.1 67 3.0 SSE 7 11 4 6 - - 0.0
31/11:00am 13.7 11.6 8.1 69 2.8 ENE 9 11 5 6 - - 0.0
31/10:30am 12.6 11.0 8.9 78 1.9 NNE 7 11 4 6 - - 0.0
31/10:00am 8.7 8.1 7.3 91 0.7 CALM 0 6 0 3 - - 0.0
31/09:30am 6.4 5.3 5.2 92 0.5 CALM 0 0 0 0 - - 0.0
31/09:00am 6.0 4.9 5.1 94 0.4 CALM 0 6 0 3 - - 0.4
31/08:30am 4.7 2.2 4.0 95 0.3 W 6 7 3 4 - - 0.4
31/08:00am 2.7 0.6 1.8 94 0.4 WNW 2 7 1 4 - - 0.4
31/07:30am 1.1 -1.2 0.2 94 0.3 SE 2 6 1 3 - - 0.4
31/07:00am 0.8 -2.5 -0.1 94 0.3 SW 7 11 4 6 - - 0.4
31/06:30am 0.6 -2.6 -0.4 93 0.4 SSW 6 7 3 4 - - 0.2
31/06:00am 0.5 -1.9 -0.5 93 0.4 W 2 7 1 4 - - 0.2
31/05:30am 0.5 -2.7 -0.5 93 0.4 SSW 6 9 3 5 - - 0.2
31/05:00am 0.3 -2.5 -0.7 93 0.4 SW 4 7 2 4 - - 0.2
31/04:30am 0.3 -2.2 -0.8 92 0.4 SE 2 11 1 6 - - 0.2
31/04:00am 0.8 -2.4 -0.3 92 0.4 SE 6 9 3 5 - - 0.2
31/03:30am 1.2 -2.1 0.0 92 0.4 ESE 7 9 4 5 - - 0.2
31/03:00am 1.9 -1.1 0.7 92 0.5 ESE 6 7 3 4 - - 0.2
31/02:30am 2.4 -0.5 1.4 93 0.4 SSE 6 7 3 4 - - 0.2
31/02:00am 1.4 -1.9 0.2 92 0.4 ESE 7 11 4 6 - - 0.2
31/01:30am 1.6 -1.5 0.4 92 0.5 SE 6 7 3 4 - - 0.0
31/01:00am 2.5 -0.6 1.3 92 0.5 SE 7 9 4 5 - - 0.0
31/12:30am 3.1 0.1 1.9 92 0.5 NE 7 11 4 6 - - 0.0
31/12:00am 2.7 -0.4 1.4 91 0.5 SE 7 9 4 5 - - 0.0
 
Date/Time
EST
Temp
°C
App
Temp
°C
Dew
Point
Rel
Hum
%
Delta-T
°C
Wind Press
QNH
hPa
Press
MSL
hPa
Rain
since 9 am
mm
Dir
 
Spd
km/h
Gust
km/h
Spd
kts
Gust
kts
30/11:30pm 3.6 0.6 2.3 91 0.5 SE 7 9 4 5 - - 0.0
30/11:00pm 3.9 1.0 2.6 91 0.5 E 7 11 4 6 - - 0.0
30/10:30pm 3.5 1.4 1.9 89 0.6 S 2 6 1 3 - - 0.0
30/10:00pm 4.8 2.0 3.1 89 0.7 SE 7 9 4 5 - - 0.0
30/09:30pm 5.3 2.8 3.6 89 0.7 E 6 6 3 3 - - 0.0
30/09:00pm 5.8 3.3 3.8 87 0.9 E 6 7 3 4 - - 0.0
30/08:30pm 6.1 3.4 3.8 85 1.0 E 7 9 4 5 - - 0.0
30/08:00pm 6.8 4.2 4.1 83 1.2 ENE 7 9 4 5 - - 0.0
30/07:30pm 7.7 5.8 4.8 82 1.3 E 4 7 2 4 - - 0.0
30/07:00pm 7.7 5.3 4.5 80 1.4 E 6 9 3 5 - - 0.0
30/06:30pm 9.1 7.3 5.3 77 1.7 NE 4 7 2 4 - - 0.0
30/06:00pm 9.8 7.4 5.4 74 2.0 NE 7 11 4 6 - - 0.0
30/05:30pm 11.4 9.1 5.9 69 2.6 NE 7 13 4 7 - - 0.0
30/05:00pm 12.4 9.1 6.5 67 2.8 NE 13 19 7 10 - - 0.0
30/04:30pm 13.2 10.0 6.8 65 3.1 NE 13 20 7 11 - - 0.0
30/04:00pm 13.7 10.1 6.6 62 3.5 NE 15 22 8 12 - - 0.0
30/03:30pm 14.6 10.8 7.4 62 3.6 NE 17 28 9 15 - - 0.0
30/03:00pm 14.7 11.7 7.5 62 3.6 ENE 13 20 7 11 - - 0.0
30/02:30pm 14.8 11.2 6.9 59 3.9 NE 15 24 8 13 - - 0.0
30/02:00pm 14.5 10.0 6.3 58 4.0 NE 19 28 10 15 - - 0.0
30/01:30pm 14.9 11.2 6.2 56 4.2 NNE 15 22 8 12 - - 0.0
30/01:00pm 14.3 10.9 5.7 56 4.1 NE 13 20 7 11 - - 0.0
30/12:30pm 14.3 11.4 6.6 60 3.8 NE 11 19 6 10 - - 0.0
30/12:00pm 13.3 10.4 6.4 63 3.3 NE 11 20 6 11 - - 0.0
30/11:30am 12.8 8.6 5.5 61 3.5 NNE 17 24 9 13 - - 0.0
30/11:00am 13.8 11.0 7.1 64 3.3 NE 11 17 6 9 - - 0.0
30/10:30am 13.1 10.8 7.3 68 2.9 NE 9 15 5 8 - - 0.0
30/10:00am 12.4 10.3 8.1 75 2.1 NNE 9 11 5 6 - - 0.0
30/09:30am 11.9 10.4 9.3 84 1.3 NE 7 11 4 6 - - 0.0
30/09:00am 9.9 9.5 8.3 90 0.8 CALM 0 0 0 0 - - 0.0
30/08:30am 9.0 7.4 7.8 92 0.6 NE 6 7 3 4 - - 0.0
30/08:00am 8.7 8.1 7.5 92 0.6 CALM 0 0 0 0 - - 0.0
30/07:30am 8.2 7.5 7.1 93 0.5 CALM 0 0 0 0 - - 0.0
30/07:00am 7.8 7.0 6.7 93 0.5 CALM 0 0 0 0 - - 0.0
30/06:30am 7.5 6.7 6.3 92 0.6 CALM 0 0 0 0 - - 0.0
30/06:00am 8.0 5.9 6.8 92 0.6 SSE 7 9 4 5 - - 0.0
30/05:30am 7.4 5.2 6.2 92 0.6 ESE 7 7 4 4 - - 0.0
30/05:00am 7.4 5.4 6.2 92 0.6 SE 6 7 3 4 - - 0.0
30/04:30am 7.2 5.1 5.8 91 0.6 NW 6 7 3 4 - - 0.0
30/04:00am 7.7 6.5 6.3 91 0.6 SE 2 6 1 3 - - 0.0
30/03:30am 7.7 6.1 6.3 91 0.6 NW 4 6 2 3 - - 0.0
30/03:00am 8.1 7.0 6.7 91 0.7 N 2 7 1 4 - - 0.0
30/02:30am 8.1 7.0 6.7 91 0.7 ENE 2 6 1 3 - - 0.0
30/02:00am 8.0 6.1 6.5 90 0.7 SE 6 7 3 4 - - 0.0
30/01:30am 8.3 7.5 6.6 89 0.8 CALM 0 0 0 0 - - 0.0
30/01:00am 8.5 7.8 6.8 89 0.8 CALM 0 0 0 0 - - 0.0
30/12:30am 9.0 8.4 7.3 89 0.8 CALM 0 0 0 0 - - 0.0
30/12:00am 8.9 7.9 7.2 89 0.8 ESE 2 6 1 3 - - 0.0
 
Date/Time
EST
Temp
°C
App
Temp
°C
Dew
Point
Rel
Hum
%
Delta-T
°C
Wind Press
QNH
hPa
Press
MSL
hPa
Rain
since 9 am
mm
Dir
 
Spd
km/h
Gust
km/h
Spd
kts
Gust
kts
29/11:30pm 9.0 6.7 7.3 89 0.8 NNE 9 11 5 6 - - 0.0
29/11:00pm 9.6 8.3 7.7 88 0.9 NNE 4 11 2 6 - - 0.0
29/10:30pm 9.7 9.1 7.6 87 1.0 CALM 0 6 0 3 - - 0.0
29/10:00pm 9.7 8.1 7.8 88 0.9 SE 6 7 3 4 - - 0.0
29/09:30pm 9.4 7.5 7.5 88 0.9 ESE 7 7 4 4 - - 0.0

Other Formats:

Comma delimited format used in spreadsheet applications
http://www.bom.gov.au/fwo/IDT60801/IDT60801.95974.axf

JavaScript Object Notation format (JSON) in row-major order
http://www.bom.gov.au/fwo/IDT60801/IDT60801.95974.json